createdAt,value
2022-11-14T00:00:21.044Z,5.07
2022-11-14T00:01:21.081Z,5.05
2022-11-14T00:02:21.039Z,4.92
2022-11-14T00:03:21.017Z,4.97
2022-11-14T00:04:24.303Z,5.05
2022-11-14T00:05:21.020Z,5.10
2022-11-14T00:06:20.971Z,5.11
2022-11-14T00:07:21.080Z,5.11
2022-11-14T00:08:20.955Z,5.15
2022-11-14T00:09:20.968Z,5.17
2022-11-14T00:10:21.053Z,5.18
2022-11-14T00:11:20.938Z,5.20
2022-11-14T00:12:20.917Z,5.30
2022-11-14T00:13:20.901Z,5.25
2022-11-14T00:14:20.913Z,5.18
2022-11-14T00:15:20.879Z,5.12
2022-11-14T00:16:20.882Z,5.10
2022-11-14T00:17:20.861Z,5.10
2022-11-14T00:18:20.840Z,5.08
2022-11-14T00:19:20.875Z,5.14
2022-11-14T00:20:20.818Z,5.12
2022-11-14T00:21:20.810Z,5.12
2022-11-14T00:22:20.815Z,5.18
2022-11-14T00:23:20.785Z,5.20
2022-11-14T00:24:20.771Z,5.18
2022-11-14T00:25:20.781Z,5.29
2022-11-14T00:26:20.864Z,5.23
2022-11-14T00:27:20.750Z,5.23
2022-11-14T00:28:20.766Z,5.21
2022-11-14T00:29:20.787Z,5.26
2022-11-14T00:30:20.711Z,5.35
2022-11-14T00:31:20.719Z,5.30
2022-11-14T00:32:20.714Z,5.25
2022-11-14T00:33:21.004Z,5.12
2022-11-14T00:34:20.699Z,5.14
2022-11-14T00:35:20.656Z,5.21
2022-11-14T00:36:20.662Z,5.07
2022-11-14T00:37:20.643Z,5.07
2022-11-14T00:38:20.629Z,5.08
2022-11-14T00:39:20.642Z,5.08
2022-11-14T00:40:20.665Z,5.08
2022-11-14T00:41:20.641Z,4.96
2022-11-14T00:42:20.698Z,5.11
2022-11-14T00:43:20.604Z,5.11
2022-11-14T00:44:20.562Z,5.11
2022-11-14T00:45:20.659Z,5.10
2022-11-14T00:46:20.540Z,5.10
2022-11-14T00:47:20.535Z,5.11
2022-11-14T00:48:20.530Z,5.08
2022-11-14T00:49:20.501Z,5.00
2022-11-14T00:50:20.539Z,5.07
2022-11-14T00:51:20.545Z,5.04
2022-11-14T00:52:20.524Z,4.96
2022-11-14T00:53:20.508Z,4.94
2022-11-14T00:54:20.458Z,4.99
2022-11-14T00:55:20.465Z,4.89
2022-11-14T00:56:20.440Z,4.82
2022-11-14T00:57:20.431Z,4.63
2022-11-14T00:58:20.423Z,4.78
2022-11-14T00:59:20.398Z,4.63
2022-11-14T01:00:20.426Z,4.66
2022-11-14T01:01:20.480Z,4.60
2022-11-14T01:02:20.384Z,4.58
2022-11-14T01:03:20.380Z,4.55
2022-11-14T01:04:20.347Z,4.56
2022-11-14T01:05:20.337Z,4.70
2022-11-14T01:06:20.337Z,4.63
2022-11-14T01:07:20.348Z,4.70
2022-11-14T01:08:20.302Z,4.77
2022-11-14T01:09:20.338Z,4.80
2022-11-14T01:10:20.278Z,4.89
2022-11-14T01:11:20.270Z,4.86
2022-11-14T01:12:20.348Z,4.86
2022-11-14T01:13:20.283Z,4.84
2022-11-14T01:14:20.407Z,4.74
2022-11-14T01:15:20.241Z,4.74
2022-11-14T01:16:20.218Z,4.70
2022-11-14T01:17:20.208Z,4.80
2022-11-14T01:18:20.227Z,4.78
2022-11-14T01:19:20.205Z,4.87
2022-11-14T01:20:20.175Z,4.75
2022-11-14T01:21:20.156Z,4.84
2022-11-14T01:22:20.197Z,4.78
2022-11-14T01:23:20.171Z,4.74
2022-11-14T01:24:20.152Z,4.84
2022-11-14T01:25:20.145Z,4.82
2022-11-14T01:26:20.112Z,4.94
2022-11-14T01:27:20.128Z,4.87
2022-11-14T01:28:20.082Z,4.92
2022-11-14T01:29:20.129Z,4.89
2022-11-14T01:30:20.189Z,4.96
2022-11-14T01:31:20.089Z,5.05
2022-11-14T01:32:20.062Z,4.99
2022-11-14T01:33:20.027Z,5.12
2022-11-14T01:34:20.018Z,5.15
2022-11-14T01:35:20.034Z,5.26
2022-11-14T01:36:20.027Z,5.21
2022-11-14T01:37:20.007Z,5.28
2022-11-14T01:38:19.986Z,5.26
2022-11-14T01:39:19.964Z,5.25
2022-11-14T01:40:20.055Z,5.25
2022-11-14T01:41:19.944Z,5.30
2022-11-14T01:42:23.111Z,5.32
2022-11-14T01:43:19.956Z,5.30
2022-11-14T01:44:19.932Z,5.38
2022-11-14T01:45:19.937Z,5.36
2022-11-14T01:46:20.022Z,5.30
2022-11-14T01:47:19.879Z,5.43
2022-11-14T01:48:19.872Z,5.46
2022-11-14T01:49:19.860Z,5.36
2022-11-14T01:50:19.872Z,5.30
2022-11-14T01:51:19.841Z,5.28
2022-11-14T01:52:19.820Z,5.26
2022-11-14T01:53:19.817Z,5.41
2022-11-14T01:54:19.865Z,5.39
2022-11-14T01:55:19.807Z,5.47
2022-11-14T01:56:19.790Z,5.54
2022-11-14T01:57:19.781Z,5.64
2022-11-14T01:58:19.757Z,5.51
2022-11-14T01:59:19.760Z,5.44
2022-11-14T02:00:19.780Z,5.38
2022-11-14T02:01:19.804Z,5.51
2022-11-14T02:02:19.831Z,5.50
2022-11-14T02:03:19.721Z,5.61
2022-11-14T02:04:19.700Z,5.53
2022-11-14T02:05:19.714Z,5.59
2022-11-14T02:06:19.690Z,5.64
2022-11-14T02:07:19.745Z,5.75
2022-11-14T02:08:19.649Z,5.65
2022-11-14T02:09:19.703Z,5.75
2022-11-14T02:10:19.625Z,5.84
2022-11-14T02:11:19.633Z,5.89
2022-11-14T02:12:19.606Z,5.91
2022-11-14T02:13:19.610Z,5.93
2022-11-14T02:14:19.615Z,5.86
2022-11-14T02:15:19.609Z,5.83
2022-11-14T02:16:19.564Z,5.91
2022-11-14T02:17:29.667Z,5.82
2022-11-14T02:18:20.670Z,5.69
2022-11-14T02:19:19.552Z,5.69
2022-11-14T02:20:19.557Z,5.62
2022-11-14T02:21:19.511Z,5.59
2022-11-14T02:22:19.497Z,5.66
2022-11-14T02:23:19.492Z,5.71
2022-11-14T02:24:19.517Z,5.75
2022-11-14T02:25:19.517Z,5.75
2022-11-14T02:26:19.455Z,5.82
2022-11-14T02:27:19.446Z,5.89
2022-11-14T02:28:19.446Z,5.93
2022-11-14T02:29:19.433Z,5.82
2022-11-14T02:30:19.440Z,5.59
2022-11-14T02:31:19.431Z,5.57
2022-11-14T02:32:19.459Z,5.50
2022-11-14T02:33:19.381Z,5.53
2022-11-14T02:34:19.509Z,5.53
2022-11-14T02:35:19.374Z,5.56
2022-11-14T02:36:19.370Z,5.64
2022-11-14T02:37:19.425Z,5.69
2022-11-14T02:38:19.335Z,5.71
2022-11-14T02:39:19.319Z,5.73
2022-11-14T02:40:19.322Z,5.83
2022-11-14T02:41:19.299Z,5.94
2022-11-14T02:42:19.302Z,6.08
2022-11-14T02:43:19.354Z,6.11
2022-11-14T02:44:19.260Z,6.31
2022-11-14T02:45:19.257Z,6.28
2022-11-14T02:46:19.273Z,6.30
2022-11-14T02:47:19.228Z,6.38
2022-11-14T02:48:19.267Z,6.30
2022-11-14T02:49:19.206Z,6.20
2022-11-14T02:50:19.356Z,6.24
2022-11-14T02:51:19.188Z,6.19
2022-11-14T02:52:19.182Z,6.24
2022-11-14T02:53:19.164Z,6.26
2022-11-14T02:54:19.208Z,6.19
2022-11-14T02:55:19.164Z,6.24
2022-11-14T02:56:19.157Z,6.24
2022-11-14T02:57:19.123Z,5.99
2022-11-14T02:58:19.113Z,5.94
2022-11-14T02:59:19.118Z,5.69
2022-11-14T03:00:19.118Z,5.47
2022-11-14T03:01:21.251Z,5.48
2022-11-14T03:02:19.062Z,5.46
2022-11-14T03:03:19.061Z,5.50
2022-11-14T03:04:19.075Z,5.43
2022-11-14T03:05:19.042Z,5.38
2022-11-14T03:06:19.159Z,5.26
2022-11-14T03:07:19.120Z,5.25
2022-11-14T03:08:18.994Z,5.21
2022-11-14T03:09:18.989Z,5.28
2022-11-14T03:10:19.071Z,5.25
2022-11-14T03:11:18.982Z,5.25
2022-11-14T03:12:18.952Z,5.21
2022-11-14T03:13:18.958Z,5.23
2022-11-14T03:14:18.929Z,5.14
2022-11-14T03:15:18.920Z,5.20
2022-11-14T03:16:19.013Z,5.14
2022-11-14T03:17:18.915Z,5.14
2022-11-14T03:18:18.887Z,5.17
2022-11-14T03:19:18.871Z,5.21
2022-11-14T03:20:18.877Z,5.28
2022-11-14T03:21:18.892Z,5.28
2022-11-14T03:22:18.962Z,5.25
2022-11-14T03:23:18.848Z,5.32
2022-11-14T03:24:18.816Z,5.30
2022-11-14T03:25:18.914Z,5.28
2022-11-14T03:26:18.809Z,5.12
2022-11-14T03:27:18.786Z,5.12
2022-11-14T03:28:18.791Z,5.04
2022-11-14T03:29:18.781Z,4.84
2022-11-14T03:30:18.808Z,4.78
2022-11-14T03:31:18.758Z,4.86
2022-11-14T03:32:18.799Z,4.87
2022-11-14T03:33:18.738Z,4.87
2022-11-14T03:34:18.746Z,5.07
2022-11-14T03:35:18.698Z,5.04
2022-11-14T03:36:18.697Z,5.00
2022-11-14T03:37:18.689Z,5.00
2022-11-14T03:38:18.827Z,5.07
2022-11-14T03:39:18.664Z,5.11
2022-11-14T03:40:18.701Z,4.99
2022-11-14T03:41:18.664Z,5.10
2022-11-14T03:42:18.625Z,5.00
2022-11-14T03:43:18.643Z,4.99
2022-11-14T03:44:18.600Z,4.92
2022-11-14T03:45:18.594Z,4.80
2022-11-14T03:46:18.586Z,4.94
2022-11-14T03:47:18.617Z,5.02
2022-11-14T03:48:18.614Z,4.97
2022-11-14T03:49:18.549Z,5.08
2022-11-14T03:50:18.542Z,5.08
2022-11-14T03:51:18.544Z,5.02
2022-11-14T03:52:18.538Z,4.99
2022-11-14T03:53:18.505Z,5.12
2022-11-14T03:54:18.631Z,5.17
2022-11-14T03:55:18.552Z,5.23
2022-11-14T03:56:18.477Z,5.30
2022-11-14T03:57:18.475Z,5.41
2022-11-14T03:58:18.457Z,5.53
2022-11-14T03:59:18.466Z,5.65
2022-11-14T04:00:18.425Z,5.73
2022-11-14T04:01:18.458Z,5.65
2022-11-14T04:02:18.503Z,5.59
2022-11-14T04:03:18.408Z,5.44
2022-11-14T04:04:18.424Z,5.20
2022-11-14T04:05:18.456Z,5.08
2022-11-14T04:06:18.387Z,5.05
2022-11-14T04:07:18.378Z,5.02
2022-11-14T04:08:18.382Z,4.86
2022-11-14T04:09:18.336Z,4.66
2022-11-14T04:10:18.458Z,4.67
2022-11-14T04:11:18.339Z,4.70
2022-11-14T04:12:18.292Z,4.80
2022-11-14T04:13:18.284Z,4.70
2022-11-14T04:14:18.298Z,4.62
2022-11-14T04:15:18.271Z,4.53
2022-11-14T04:16:18.254Z,4.55
2022-11-14T04:17:18.262Z,4.55
2022-11-14T04:18:18.231Z,4.71
2022-11-14T04:19:18.220Z,4.70
2022-11-14T04:20:18.207Z,4.50
2022-11-14T04:21:18.246Z,4.59
2022-11-14T04:22:18.185Z,4.60
2022-11-14T04:23:18.174Z,4.55
2022-11-14T04:24:18.208Z,4.58
2022-11-14T04:25:18.157Z,4.49
2022-11-14T04:26:18.255Z,4.52
2022-11-14T04:27:18.140Z,4.62
2022-11-14T04:28:18.159Z,4.63
2022-11-14T04:29:18.155Z,4.66
2022-11-14T04:30:18.162Z,4.73
2022-11-14T04:31:18.112Z,4.74
2022-11-14T04:32:18.083Z,4.92
2022-11-14T04:33:18.090Z,4.86
2022-11-14T04:34:18.061Z,4.96
2022-11-14T04:35:18.051Z,5.00
2022-11-14T04:36:18.064Z,5.08
2022-11-14T04:37:18.023Z,5.08
2022-11-14T04:38:18.047Z,5.08
2022-11-14T04:39:18.013Z,5.11
2022-11-14T04:40:17.988Z,5.07
2022-11-14T04:41:18.014Z,4.99
2022-11-14T04:42:18.090Z,5.08
2022-11-14T04:43:17.958Z,4.97
2022-11-14T04:44:17.983Z,4.86
2022-11-14T04:45:18.014Z,4.77
2022-11-14T04:46:17.923Z,4.73
2022-11-14T04:47:17.916Z,4.74
2022-11-14T04:48:17.914Z,4.73
2022-11-14T04:49:17.935Z,4.74
2022-11-14T04:50:17.909Z,4.70
2022-11-14T04:51:17.900Z,4.75
2022-11-14T04:52:17.861Z,4.84
2022-11-14T04:53:17.910Z,4.87
2022-11-14T04:54:17.864Z,4.99
2022-11-14T04:55:17.832Z,4.93
2022-11-14T04:56:17.832Z,4.94
2022-11-14T04:57:17.844Z,4.94
2022-11-14T04:58:17.981Z,4.92
2022-11-14T04:59:20.873Z,4.99
2022-11-14T05:00:17.771Z,5.00
2022-11-14T05:01:17.846Z,4.94
2022-11-14T05:02:17.781Z,4.99
2022-11-14T05:03:17.744Z,5.00
2022-11-14T05:04:17.728Z,5.08
2022-11-14T05:05:17.736Z,5.11
2022-11-14T05:06:17.766Z,5.10
2022-11-14T05:07:17.779Z,4.97
2022-11-14T05:08:17.704Z,5.00
2022-11-14T05:09:17.674Z,4.94
2022-11-14T05:10:17.676Z,4.97
2022-11-14T05:11:17.665Z,4.89
2022-11-14T05:12:17.681Z,4.97
2022-11-14T05:13:17.639Z,4.94
2022-11-14T05:14:17.660Z,5.05
2022-11-14T05:15:17.618Z,4.87
2022-11-14T05:16:17.617Z,4.84
2022-11-14T05:17:17.617Z,4.86
2022-11-14T05:18:17.584Z,4.86
2022-11-14T05:19:17.587Z,4.78
2022-11-14T05:20:17.582Z,4.86
2022-11-14T05:21:17.557Z,4.80
2022-11-14T05:22:17.567Z,4.84
2022-11-14T05:23:17.530Z,4.78
2022-11-14T05:24:17.518Z,4.84
2022-11-14T05:25:17.535Z,4.86
2022-11-14T05:26:17.488Z,4.86
2022-11-14T05:27:17.534Z,4.84
2022-11-14T05:28:17.473Z,4.82
2022-11-14T05:29:17.461Z,4.80
2022-11-14T05:30:17.509Z,4.87
2022-11-14T05:31:17.446Z,4.90
2022-11-14T05:32:17.434Z,4.94
2022-11-14T05:33:17.420Z,4.89
2022-11-14T05:34:17.413Z,4.92
2022-11-14T05:35:17.402Z,4.96
2022-11-14T05:36:17.400Z,4.82
2022-11-14T05:37:17.460Z,4.87
2022-11-14T05:38:17.372Z,4.77
2022-11-14T05:39:17.378Z,4.80
2022-11-14T05:40:17.370Z,4.86
2022-11-14T05:41:17.329Z,4.92
2022-11-14T05:42:17.362Z,4.86
2022-11-14T05:43:17.327Z,5.02
2022-11-14T05:44:17.339Z,4.97
2022-11-14T05:45:17.314Z,4.97
2022-11-14T05:46:17.303Z,4.78
2022-11-14T05:47:17.268Z,4.84
2022-11-14T05:48:17.261Z,4.82
2022-11-14T05:49:21.744Z,4.84
2022-11-14T05:50:17.232Z,4.84
2022-11-14T05:51:17.242Z,4.86
2022-11-14T05:52:17.281Z,4.93
2022-11-14T05:53:17.239Z,4.87
2022-11-14T05:54:17.210Z,4.94
2022-11-14T05:55:21.875Z,4.90
2022-11-14T05:56:17.215Z,4.90
2022-11-14T05:57:17.166Z,4.92
2022-11-14T05:58:17.172Z,4.92
2022-11-14T05:59:17.140Z,4.93
2022-11-14T06:00:17.158Z,4.94
2022-11-14T06:01:17.114Z,5.00
2022-11-14T06:02:17.239Z,4.96
2022-11-14T06:03:17.128Z,4.99
2022-11-14T06:04:17.095Z,4.90
2022-11-14T06:05:17.072Z,4.96
2022-11-14T06:06:17.088Z,4.87
2022-11-14T06:07:20.151Z,4.66
2022-11-14T06:08:17.061Z,4.58
2022-11-14T06:09:17.030Z,4.38
2022-11-14T06:10:17.022Z,4.37
2022-11-14T06:11:17.031Z,4.30
2022-11-14T06:12:17.025Z,4.35
2022-11-14T06:13:17.020Z,4.32
2022-11-14T06:14:16.998Z,4.32
2022-11-14T06:15:16.962Z,4.35
2022-11-14T06:16:16.954Z,4.42
2022-11-14T06:17:16.944Z,4.40
2022-11-14T06:18:16.978Z,4.38
2022-11-14T06:19:16.923Z,4.40
2022-11-14T06:20:16.923Z,4.48
2022-11-14T06:21:17.677Z,4.53
2022-11-14T06:22:16.890Z,4.56
2022-11-14T06:23:21.973Z,4.66
2022-11-14T06:24:16.915Z,4.59
2022-11-14T06:25:16.861Z,4.55
2022-11-14T06:26:16.845Z,4.49
2022-11-14T06:27:16.854Z,4.40
2022-11-14T06:28:16.824Z,4.41
2022-11-14T06:29:16.831Z,4.34
2022-11-14T06:30:16.828Z,4.40
2022-11-14T06:31:16.801Z,4.42
2022-11-14T06:32:16.779Z,4.34
2022-11-14T06:33:16.793Z,4.38
2022-11-14T06:34:16.812Z,4.41
2022-11-14T06:35:16.767Z,4.41
2022-11-14T06:36:16.745Z,4.50
2022-11-14T06:37:16.729Z,4.52
2022-11-14T06:38:16.711Z,4.58
2022-11-14T06:39:16.712Z,4.67
2022-11-14T06:40:16.717Z,4.66
2022-11-14T06:41:16.689Z,4.67
2022-11-14T06:42:16.689Z,4.66
2022-11-14T06:43:16.656Z,4.67
2022-11-14T06:44:16.661Z,4.77
2022-11-14T06:45:16.665Z,4.74
2022-11-14T06:46:16.624Z,4.89
2022-11-14T06:47:16.632Z,4.82
2022-11-14T06:48:16.606Z,4.90
2022-11-14T06:49:16.594Z,4.96
2022-11-14T06:50:16.600Z,4.89
2022-11-14T06:51:16.603Z,4.94
2022-11-14T06:52:16.560Z,4.93
2022-11-14T06:53:16.571Z,4.86
2022-11-14T06:54:16.565Z,4.78
2022-11-14T06:55:20.919Z,4.82
2022-11-14T06:56:16.538Z,4.92
2022-11-14T06:57:16.546Z,4.90
2022-11-14T06:58:16.531Z,4.86
2022-11-14T06:59:16.490Z,4.74
2022-11-14T07:00:16.476Z,4.80
2022-11-14T07:01:16.461Z,4.67
2022-11-14T07:02:21.761Z,4.71
2022-11-14T07:03:16.517Z,4.73
2022-11-14T07:04:16.446Z,4.63
2022-11-14T07:05:16.436Z,4.55
2022-11-14T07:06:16.471Z,4.59
2022-11-14T07:07:16.444Z,4.56
2022-11-14T07:08:21.035Z,4.58
2022-11-14T07:09:16.375Z,4.56
2022-11-14T07:10:16.390Z,4.58
2022-11-14T07:11:16.374Z,4.52
2022-11-14T07:12:16.394Z,4.53
2022-11-14T07:13:16.330Z,4.63
2022-11-14T07:14:16.346Z,4.66
2022-11-14T07:15:16.347Z,4.63
2022-11-14T07:16:16.311Z,4.71
2022-11-14T07:17:16.285Z,4.75
2022-11-14T07:18:16.277Z,4.70
2022-11-14T07:19:16.294Z,4.77
2022-11-14T07:20:16.254Z,4.73
2022-11-14T07:21:16.270Z,4.87
2022-11-14T07:22:16.260Z,4.80
2022-11-14T07:23:21.481Z,4.84
2022-11-14T07:24:16.213Z,4.77
2022-11-14T07:25:16.210Z,4.84
2022-11-14T07:26:16.193Z,4.78
2022-11-14T07:27:16.202Z,4.74
2022-11-14T07:28:16.199Z,4.75
2022-11-14T07:29:16.156Z,4.86
2022-11-14T07:30:16.158Z,4.87
2022-11-14T07:31:16.167Z,4.97
2022-11-14T07:32:16.172Z,5.08
2022-11-14T07:33:16.140Z,4.93
2022-11-14T07:34:16.106Z,4.94
2022-11-14T07:35:16.092Z,5.05
2022-11-14T07:36:16.087Z,5.11
2022-11-14T07:37:16.104Z,5.05
2022-11-14T07:38:16.087Z,5.08
2022-11-14T07:39:16.067Z,5.10
2022-11-14T07:40:16.090Z,5.11
2022-11-14T07:41:16.025Z,5.14
2022-11-14T07:42:16.035Z,5.18
2022-11-14T07:43:16.004Z,5.17
2022-11-14T07:44:16.005Z,5.21
2022-11-14T07:45:16.012Z,5.28
2022-11-14T07:46:16.017Z,5.23
2022-11-14T07:47:15.960Z,5.28
2022-11-14T07:48:15.981Z,5.25
2022-11-14T07:49:15.939Z,5.36
2022-11-14T07:50:20.162Z,5.38
2022-11-14T07:51:15.951Z,5.39
2022-11-14T07:52:15.910Z,5.28
2022-11-14T07:53:15.901Z,5.30
2022-11-14T07:54:15.910Z,5.39
2022-11-14T07:55:15.906Z,5.43
2022-11-14T07:56:15.868Z,5.56
2022-11-14T07:57:15.882Z,5.51
2022-11-14T07:58:15.888Z,5.59
2022-11-14T07:59:15.835Z,5.69
2022-11-14T08:00:15.852Z,5.59
2022-11-14T08:01:15.950Z,5.53
2022-11-14T08:02:15.817Z,5.61
2022-11-14T08:03:15.842Z,5.56
2022-11-14T08:04:15.876Z,5.64
2022-11-14T08:05:15.777Z,5.69
2022-11-14T08:06:15.774Z,5.64
2022-11-14T08:07:15.806Z,5.79
2022-11-14T08:08:15.763Z,5.91
2022-11-14T08:09:15.722Z,5.99
2022-11-14T08:10:15.782Z,6.11
2022-11-14T08:11:31.699Z,6.20
2022-11-14T08:12:15.702Z,6.19
2022-11-14T08:13:32.995Z,6.16
2022-11-14T08:14:16.673Z,6.24
2022-11-14T08:15:15.719Z,6.27
2022-11-14T08:16:15.654Z,6.45
2022-11-14T08:17:15.666Z,6.41
2022-11-14T08:18:15.629Z,6.52
2022-11-14T08:19:15.656Z,6.36
2022-11-14T08:20:15.622Z,6.52
2022-11-14T08:21:15.621Z,6.52
2022-11-14T08:22:15.594Z,6.51
2022-11-14T08:23:15.574Z,6.59
2022-11-14T08:24:15.593Z,6.64
2022-11-14T08:25:15.552Z,6.56
2022-11-14T08:26:15.565Z,6.63
2022-11-14T08:27:15.568Z,6.64
2022-11-14T08:28:15.532Z,6.70
2022-11-14T08:29:15.509Z,6.72
2022-11-14T08:30:15.531Z,6.70
2022-11-14T08:31:15.524Z,6.70
2022-11-14T08:32:15.485Z,6.67
2022-11-14T08:33:15.475Z,6.69
2022-11-14T08:34:15.484Z,6.78
2022-11-14T08:35:15.486Z,6.88
2022-11-14T08:36:15.461Z,6.89
2022-11-14T08:37:15.453Z,6.87
2022-11-14T08:38:15.411Z,6.97
2022-11-14T08:39:15.403Z,7.10
2022-11-14T08:40:15.395Z,7.18
2022-11-14T08:41:15.425Z,7.31
2022-11-14T08:42:15.459Z,7.28
2022-11-14T08:43:15.367Z,7.31
2022-11-14T08:44:15.350Z,7.42
2022-11-14T08:45:15.393Z,7.42
2022-11-14T08:46:15.331Z,7.63
2022-11-14T08:47:15.319Z,7.70
2022-11-14T08:48:15.322Z,7.87
2022-11-14T08:49:15.346Z,7.85
2022-11-14T08:50:15.282Z,7.90
2022-11-14T08:51:15.291Z,8.05
2022-11-14T08:52:16.814Z,8.09
2022-11-14T08:53:15.266Z,8.16
2022-11-14T08:54:15.265Z,8.12
2022-11-14T08:55:15.266Z,8.33
2022-11-14T08:56:15.216Z,8.41
2022-11-14T08:57:15.239Z,8.51
2022-11-14T08:58:15.219Z,8.63
2022-11-14T08:59:15.210Z,8.64
2022-11-14T09:00:15.192Z,8.70
2022-11-14T09:01:15.163Z,8.74
2022-11-14T09:02:15.149Z,8.84
2022-11-14T09:03:15.220Z,9.03
2022-11-14T09:04:15.162Z,8.95
2022-11-14T09:05:15.134Z,9.14
2022-11-14T09:06:15.112Z,9.19
2022-11-14T09:07:15.188Z,9.32
2022-11-14T09:08:15.149Z,9.36
2022-11-14T09:09:15.087Z,9.43
2022-11-14T09:10:15.186Z,9.40
2022-11-14T09:11:19.082Z,9.55
2022-11-14T09:12:15.104Z,9.56
2022-11-14T09:13:15.029Z,9.65
2022-11-14T09:14:15.046Z,9.66
2022-11-14T09:15:15.013Z,9.68
2022-11-14T09:16:15.019Z,9.73
2022-11-14T09:17:15.009Z,9.77
2022-11-14T09:18:14.968Z,9.80
2022-11-14T09:19:14.991Z,9.84
2022-11-14T09:20:14.957Z,9.98
2022-11-14T09:21:14.938Z,9.89
2022-11-14T09:22:14.946Z,9.98
2022-11-14T09:23:14.957Z,10.02
2022-11-14T09:24:14.904Z,10.10
2022-11-14T09:25:14.897Z,10.23
2022-11-14T09:26:14.896Z,10.26
2022-11-14T09:27:14.901Z,10.31
2022-11-14T09:28:14.874Z,10.28
2022-11-14T09:29:14.888Z,10.33
2022-11-14T09:30:14.855Z,10.31
2022-11-14T09:31:14.913Z,10.40
2022-11-14T09:32:14.831Z,10.57
2022-11-14T09:33:14.819Z,10.44
2022-11-14T09:34:14.811Z,10.59
2022-11-14T09:35:14.816Z,10.61
2022-11-14T09:36:14.817Z,10.63
2022-11-14T09:37:14.765Z,10.72
2022-11-14T09:38:14.752Z,10.76
2022-11-14T09:39:14.753Z,10.78
2022-11-14T09:40:14.777Z,10.82
2022-11-14T09:41:14.726Z,10.92
2022-11-14T09:42:17.356Z,10.90
2022-11-14T09:43:14.703Z,10.99
2022-11-14T09:44:20.051Z,11.07
2022-11-14T09:45:14.712Z,11.11
2022-11-14T09:46:14.707Z,11.07
2022-11-14T09:47:20.214Z,11.02
2022-11-14T09:48:14.702Z,11.04
2022-11-14T09:49:14.637Z,11.17
2022-11-14T09:50:14.629Z,11.19
2022-11-14T09:51:14.626Z,11.11
2022-11-14T09:52:14.607Z,11.15
2022-11-14T09:53:14.637Z,11.17
2022-11-14T09:54:14.579Z,11.26
2022-11-14T09:55:14.596Z,11.40
2022-11-14T09:56:14.561Z,11.35
2022-11-14T09:57:14.568Z,11.44
2022-11-14T09:58:14.531Z,11.40
2022-11-14T09:59:14.530Z,11.43
2022-11-14T10:00:14.552Z,11.47
2022-11-14T10:01:14.537Z,11.51
2022-11-14T10:02:14.727Z,11.65
2022-11-14T10:03:14.503Z,11.80
2022-11-14T10:04:14.468Z,11.87
2022-11-14T10:05:15.278Z,11.91
2022-11-14T10:06:14.452Z,11.94
2022-11-14T10:07:14.470Z,12.00
2022-11-14T10:08:14.461Z,12.02
2022-11-14T10:09:14.461Z,12.07
2022-11-14T10:10:14.405Z,12.03
2022-11-14T10:11:14.401Z,12.03
2022-11-14T10:12:14.386Z,11.97
2022-11-14T10:13:14.408Z,11.94
2022-11-14T10:14:14.391Z,11.86
2022-11-14T10:15:14.389Z,11.95
2022-11-14T10:16:14.351Z,12.03
2022-11-14T10:17:14.378Z,12.15
2022-11-14T10:18:14.399Z,12.21
2022-11-14T10:19:14.315Z,12.17
2022-11-14T10:20:14.299Z,12.37
2022-11-14T10:21:14.318Z,12.40
2022-11-14T10:22:14.277Z,12.35
2022-11-14T10:23:14.301Z,12.39
2022-11-14T10:24:14.307Z,12.49
2022-11-14T10:25:14.249Z,12.37
2022-11-14T10:26:14.250Z,12.40
2022-11-14T10:27:14.299Z,12.39
2022-11-14T10:28:14.210Z,12.43
2022-11-14T10:29:14.217Z,12.40
2022-11-14T10:30:14.205Z,12.50
2022-11-14T10:31:14.173Z,12.53
2022-11-14T10:32:14.176Z,12.57
2022-11-14T10:33:14.170Z,12.61
2022-11-14T10:34:14.209Z,12.57
2022-11-14T10:35:14.159Z,12.64
2022-11-14T10:36:14.133Z,12.60
2022-11-14T10:37:14.105Z,12.68
2022-11-14T10:38:14.094Z,12.72
2022-11-14T10:39:14.084Z,12.73
2022-11-14T10:40:14.111Z,12.61
2022-11-14T10:41:34.768Z,12.65
2022-11-14T10:42:14.062Z,12.70
2022-11-14T10:43:14.039Z,12.82
2022-11-14T10:44:14.059Z,12.87
2022-11-14T10:45:14.021Z,12.86
2022-11-14T10:46:14.030Z,12.90
2022-11-14T10:47:14.017Z,12.86
2022-11-14T10:48:13.996Z,12.90
2022-11-14T10:49:13.994Z,12.91
2022-11-14T10:50:13.999Z,13.01
2022-11-14T10:51:13.957Z,12.97
2022-11-14T10:52:13.964Z,12.91
2022-11-14T10:53:13.944Z,13.12
2022-11-14T10:54:13.919Z,13.13
2022-11-14T10:55:13.958Z,13.09
2022-11-14T10:56:13.907Z,13.11
2022-11-14T10:57:13.920Z,13.16
2022-11-14T10:58:13.878Z,13.16
2022-11-14T10:59:13.882Z,13.31
2022-11-14T11:00:13.852Z,13.25
2022-11-14T11:01:13.930Z,13.23
2022-11-14T11:02:13.846Z,13.23
2022-11-14T11:03:13.823Z,13.31
2022-11-14T11:04:13.946Z,13.25
2022-11-14T11:05:13.796Z,13.37
2022-11-14T11:06:13.878Z,13.39
2022-11-14T11:07:13.891Z,13.41
2022-11-14T11:08:41.362Z,13.42
2022-11-14T11:09:14.829Z,13.31
2022-11-14T11:10:13.737Z,13.46
2022-11-14T11:11:13.727Z,13.57
2022-11-14T11:12:13.756Z,13.54
2022-11-14T11:13:13.718Z,13.54
2022-11-14T11:14:13.696Z,13.47
2022-11-14T11:15:13.701Z,13.56
2022-11-14T11:16:13.695Z,13.60
2022-11-14T11:17:13.660Z,13.65
2022-11-14T11:18:13.660Z,13.72
2022-11-14T11:19:13.662Z,13.77
2022-11-14T11:20:13.664Z,13.75
2022-11-14T11:21:13.701Z,13.67
2022-11-14T11:22:13.679Z,13.71
2022-11-14T11:23:13.733Z,13.79
2022-11-14T11:24:13.634Z,13.72
2022-11-14T11:25:13.622Z,13.83
2022-11-14T11:26:13.602Z,13.86
2022-11-14T11:27:13.683Z,13.87
2022-11-14T11:28:13.630Z,14.03
2022-11-14T11:29:13.560Z,13.99
2022-11-14T11:30:13.517Z,14.07
2022-11-14T11:31:13.560Z,14.03
2022-11-14T11:32:13.494Z,13.97
2022-11-14T11:33:13.483Z,13.99
2022-11-14T11:34:13.512Z,14.05
2022-11-14T11:35:13.460Z,14.00
2022-11-14T11:36:13.470Z,14.12
2022-11-14T11:37:13.466Z,14.20
2022-11-14T11:38:15.892Z,14.17
2022-11-14T11:39:13.757Z,14.12
2022-11-14T11:40:13.449Z,14.22
2022-11-14T11:41:25.847Z,14.17
2022-11-14T11:42:13.404Z,14.32
2022-11-14T11:44:13.363Z,14.44
2022-11-14T11:45:13.376Z,14.33
2022-11-14T11:46:13.364Z,14.37
2022-11-14T11:47:13.335Z,14.33
2022-11-14T11:48:13.347Z,14.29
2022-11-14T11:49:13.305Z,14.33
2022-11-14T11:50:13.299Z,14.33
2022-11-14T11:51:13.325Z,14.50
2022-11-14T11:52:13.283Z,14.44
2022-11-14T11:53:13.290Z,14.44
2022-11-14T11:54:13.291Z,14.37
2022-11-14T11:55:13.244Z,14.50
2022-11-14T11:56:13.259Z,14.50
2022-11-14T11:57:17.184Z,14.50
2022-11-14T11:58:13.244Z,14.48
2022-11-14T11:59:13.205Z,14.53
2022-11-14T12:00:13.207Z,14.45
2022-11-14T12:01:13.214Z,14.59
2022-11-14T12:02:13.327Z,14.62
2022-11-14T12:03:13.626Z,14.59
2022-11-14T12:04:15.182Z,14.62
2022-11-14T12:05:13.142Z,14.68
2022-11-14T12:06:13.119Z,14.66
2022-11-14T12:07:13.364Z,14.58
2022-11-14T12:08:18.553Z,14.68
2022-11-14T12:09:13.093Z,14.73
2022-11-14T12:10:13.309Z,14.73
2022-11-14T12:11:13.097Z,14.82
2022-11-14T12:12:13.062Z,14.73
2022-11-14T12:13:13.044Z,14.81
2022-11-14T12:14:13.089Z,14.81
2022-11-14T12:15:13.053Z,14.78
2022-11-14T12:16:13.511Z,14.81
2022-11-14T12:17:13.005Z,14.78
2022-11-14T12:18:12.986Z,14.78
2022-11-14T12:19:13.021Z,14.81
2022-11-14T12:20:13.042Z,14.85
2022-11-14T12:21:12.980Z,14.89
2022-11-14T12:22:13.273Z,14.84
2022-11-14T12:23:12.949Z,14.88
2022-11-14T12:24:12.920Z,14.89
2022-11-14T12:25:13.653Z,15.02
2022-11-14T12:26:12.978Z,14.97
2022-11-14T12:27:12.986Z,14.96
2022-11-14T12:28:12.884Z,14.99
2022-11-14T12:29:13.653Z,14.97
2022-11-14T12:30:12.856Z,14.92
2022-11-14T12:31:12.907Z,15.03
2022-11-14T12:32:12.847Z,14.88
2022-11-14T12:33:12.851Z,14.89
2022-11-14T12:34:13.651Z,14.97
2022-11-14T12:35:12.939Z,14.94
2022-11-14T12:36:12.815Z,14.99
2022-11-14T12:37:13.127Z,14.96
2022-11-14T12:38:12.797Z,15.03
2022-11-14T12:39:12.818Z,15.02
2022-11-14T12:40:12.761Z,14.99
2022-11-14T12:41:12.733Z,15.06
2022-11-14T12:42:12.748Z,15.14
2022-11-14T12:43:12.713Z,15.04
2022-11-14T12:44:12.773Z,15.14
2022-11-14T12:45:12.696Z,15.07
2022-11-14T12:46:12.730Z,15.14
2022-11-14T12:47:12.696Z,15.15
2022-11-14T12:48:12.660Z,15.09
2022-11-14T12:49:12.754Z,15.14
2022-11-14T12:50:12.666Z,15.04
2022-11-14T12:51:12.800Z,15.15
2022-11-14T12:52:12.627Z,15.18
2022-11-14T12:53:12.600Z,15.04
2022-11-14T12:54:12.589Z,15.18
2022-11-14T12:55:12.606Z,15.10
2022-11-14T12:56:12.591Z,15.14
2022-11-14T12:57:12.567Z,15.15
2022-11-14T12:58:12.609Z,15.15
2022-11-14T12:59:12.653Z,15.17
2022-11-14T13:00:12.621Z,15.15
2022-11-14T13:01:12.591Z,15.22
2022-11-14T13:02:12.504Z,15.17
2022-11-14T13:03:12.524Z,15.24
2022-11-14T13:04:12.507Z,15.24
2022-11-14T13:05:12.469Z,15.22
2022-11-14T13:06:12.496Z,15.11
2022-11-14T13:07:12.490Z,15.15
2022-11-14T13:08:12.482Z,15.17
2022-11-14T13:09:12.519Z,15.11
2022-11-14T13:10:12.483Z,15.18
2022-11-14T13:11:12.402Z,15.11